createdAt,value
2019-03-16T05:02:46.920Z,1.93
2019-03-16T05:05:10.015Z,0.97
2019-03-16T05:07:32.778Z,0.30
2019-03-16T05:09:55.680Z,2.27
2019-03-16T05:12:18.303Z,2.20
2019-03-16T05:14:41.240Z,0.50
2019-03-16T06:00:14.671Z,1.90
2019-03-16T06:02:37.163Z,1.63
2019-03-16T06:05:09.764Z,1.03
2019-03-16T06:07:24.055Z,0.60
2019-03-16T06:09:46.586Z,1.23
2019-03-16T06:12:09.125Z,1.23
2019-03-16T06:14:31.543Z,2.13
2019-03-16T07:02:16.205Z,2.63
2019-03-16T07:04:38.791Z,1.70
2019-03-16T07:07:01.339Z,2.60
2019-03-16T07:09:23.779Z,2.73
2019-03-16T07:11:46.219Z,1.70
2019-03-16T07:14:08.660Z,2.13
2019-03-16T08:00:19.072Z,2.93
2019-03-16T08:02:41.544Z,2.00
2019-03-16T08:05:16.961Z,4.50
2019-03-16T08:07:28.477Z,3.33
2019-03-16T08:09:51.023Z,2.93
2019-03-16T08:12:13.460Z,2.00
2019-03-16T08:14:35.904Z,1.93
2019-03-16T09:02:27.759Z,3.10
2019-03-16T09:04:50.577Z,3.57
2019-03-16T09:07:16.643Z,2.77
2019-03-16T09:09:39.095Z,2.53
2019-03-16T09:12:27.301Z,3.20
2019-03-16T09:14:49.829Z,3.83
2019-03-16T10:00:56.855Z,2.77
2019-03-16T10:03:19.352Z,2.93
2019-03-16T10:05:41.795Z,2.93
2019-03-16T10:08:04.292Z,4.83
2019-03-16T10:10:26.804Z,3.67
2019-03-16T10:13:04.040Z,2.27
2019-03-16T11:00:56.317Z,3.23
2019-03-16T11:03:19.043Z,5.33
2019-03-16T11:05:43.095Z,2.83
2019-03-16T11:08:08.688Z,3.43
2019-03-16T11:10:31.288Z,3.57
2019-03-16T11:12:53.917Z,2.60
2019-03-16T12:07:21.665Z,0.93
2019-03-16T12:09:44.916Z,1.77
2019-03-16T12:12:12.084Z,1.80
2019-03-16T12:14:35.812Z,1.70
2019-03-16T12:39:40.852Z,2.10
2019-03-16T12:42:03.584Z,0.80
2019-03-16T12:44:29.194Z,1.50
2019-03-16T12:46:56.313Z,1.13
2019-03-16T12:49:18.912Z,1.70
2019-03-16T12:51:42.447Z,0.50
2019-03-16T12:54:05.004Z,1.37
2019-03-16T12:56:27.547Z,2.23
2019-03-16T12:58:50.050Z,0.90
2019-03-16T13:01:12.903Z,1.73
2019-03-16T13:03:35.571Z,1.53
2019-03-16T13:05:58.012Z,1.10
2019-03-16T13:08:20.566Z,0.90
2019-03-16T13:10:43.162Z,1.37
2019-03-16T13:13:05.715Z,1.00
2019-03-16T14:01:50.819Z,0.93
2019-03-16T14:04:13.378Z,1.02
2019-03-16T14:06:37.065Z,0.50
2019-03-16T14:08:59.834Z,0.95
2019-03-16T15:01:46.286Z,0.78
2019-03-16T15:04:08.885Z,1.02
2019-03-16T15:06:31.808Z,0.70
2019-03-16T15:08:54.471Z,0.72
2019-03-16T15:11:16.904Z,1.00
2019-03-16T15:13:39.359Z,0.90
2019-03-16T16:02:39.114Z,0.80
2019-03-16T16:05:01.575Z,1.77
2019-03-16T16:07:24.106Z,1.00
2019-03-16T16:09:47.050Z,0.70
2019-03-16T16:12:09.483Z,1.83
2019-03-16T16:14:32.027Z,1.83
2019-03-16T17:00:44.827Z,3.90
2019-03-16T17:03:07.411Z,3.47
2019-03-16T17:05:29.852Z,5.40
2019-03-16T17:07:52.886Z,4.80
2019-03-16T17:10:15.678Z,4.10
2019-03-16T17:12:38.459Z,3.70
2019-03-16T17:15:01.123Z,3.47
2019-03-16T17:44:13.220Z,12.33
2019-03-16T17:46:35.707Z,14.63
2019-03-16T17:48:58.320Z,11.10
2019-03-16T17:51:20.791Z,10.23
2019-03-16T17:53:43.327Z,11.70
2019-03-16T17:56:05.763Z,7.47
2019-03-16T17:58:28.224Z,8.13
2019-03-16T18:00:50.763Z,6.47
2019-03-16T18:03:14.346Z,5.00
2019-03-16T18:05:37.192Z,5.63
2019-03-16T18:07:59.777Z,5.23
2019-03-16T18:10:22.240Z,6.93
2019-03-16T18:12:44.798Z,7.10
2019-03-16T19:02:32.780Z,10.03
2019-03-16T19:04:55.327Z,21.07
2019-03-16T19:07:17.763Z,18.87
2019-03-16T19:09:40.291Z,15.27
2019-03-16T19:12:02.820Z,12.37
2019-03-16T19:14:25.293Z,9.23
2019-03-16T20:00:34.319Z,10.23
2019-03-16T20:02:56.888Z,8.43
2019-03-16T20:05:20.559Z,13.00
2019-03-16T20:07:43.133Z,18.70
2019-03-16T20:10:05.919Z,26.13
2019-03-16T20:12:28.373Z,19.20
2019-03-16T20:14:50.837Z,16.83
2019-03-16T20:17:13.282Z,15.50
2019-03-16T20:19:35.711Z,8.50
2019-03-16T20:21:58.187Z,8.53
2019-03-16T20:24:21.814Z,10.13
2019-03-16T20:26:44.591Z,10.90
2019-03-16T20:29:08.026Z,10.47
2019-03-16T20:31:30.654Z,11.73
2019-03-16T20:33:53.313Z,10.80
2019-03-16T20:36:15.779Z,11.43
2019-03-16T20:38:38.243Z,9.93
2019-03-16T20:41:00.783Z,11.53
2019-03-16T20:43:23.242Z,10.43
2019-03-16T20:45:45.684Z,10.33
2019-03-16T20:48:08.128Z,12.57
2019-03-16T20:50:31.233Z,9.70
2019-03-16T20:52:53.791Z,11.10
2019-03-16T20:55:16.224Z,10.00
2019-03-16T20:57:38.779Z,10.50
2019-03-16T21:00:02.108Z,7.80
2019-03-16T21:02:25.747Z,10.80
2019-03-16T21:04:48.232Z,7.17
2019-03-16T21:07:10.672Z,8.27
2019-03-16T21:09:33.124Z,9.20
2019-03-16T21:11:55.578Z,8.00
2019-03-16T21:14:18.095Z,8.20
